createdAt,value
2022-08-01T00:02:11.075Z,91.70
2022-08-01T00:04:59.123Z,92.10
2022-08-01T00:07:45.799Z,92.30
2022-08-01T00:10:32.738Z,92.40
2022-08-01T00:13:22.855Z,92.60
2022-08-01T00:16:09.366Z,93.00
2022-08-01T00:18:57.325Z,93.00
2022-08-01T00:21:51.820Z,93.00
2022-08-01T00:24:39.340Z,93.30
2022-08-01T00:27:25.779Z,93.20
2022-08-01T00:30:14.828Z,93.30
2022-08-01T00:33:01.542Z,93.60
2022-08-01T00:35:49.318Z,93.90
2022-08-01T00:38:35.836Z,94.00
2022-08-01T00:41:22.490Z,94.70
2022-08-01T00:44:09.054Z,94.80
2022-08-01T00:46:55.351Z,94.70
2022-08-01T00:49:41.764Z,95.00
2022-08-01T00:52:29.570Z,94.90
2022-08-01T00:55:17.339Z,95.20
2022-08-01T00:58:05.734Z,95.20
2022-08-01T01:00:54.619Z,95.30
2022-08-01T01:03:58.650Z,95.50
2022-08-01T01:06:58.761Z,95.50
2022-08-01T01:09:52.776Z,95.70
2022-08-01T01:12:49.982Z,95.90
2022-08-01T01:15:45.820Z,95.90
2022-08-01T01:18:36.497Z,95.90
2022-08-01T01:21:49.801Z,95.80
2022-08-01T01:24:43.946Z,96.20
2022-08-01T01:27:46.658Z,95.90
2022-08-01T01:30:35.754Z,96.40
2022-08-01T01:33:24.453Z,96.60
2022-08-01T01:36:15.193Z,96.80
2022-08-01T01:39:03.451Z,97.10
2022-08-01T01:41:51.371Z,97.80
2022-08-01T01:44:39.503Z,97.80
2022-08-01T01:47:29.799Z,97.70
2022-08-01T01:50:17.528Z,98.20
2022-08-01T01:53:04.789Z,98.40
2022-08-01T01:55:54.622Z,98.70
2022-08-01T01:58:41.959Z,99.70
2022-08-01T02:01:58.831Z,99.80
2022-08-01T02:04:43.481Z,99.90
2022-08-01T02:07:31.370Z,99.90
2022-08-01T02:10:19.225Z,99.90
2022-08-01T02:13:08.313Z,99.90
2022-08-01T02:15:59.259Z,99.90
2022-08-01T02:18:47.058Z,99.90
2022-08-01T02:21:43.100Z,99.90
2022-08-01T02:24:38.835Z,99.90
2022-08-01T02:27:30.358Z,99.90
2022-08-01T02:30:18.017Z,99.90
2022-08-01T02:33:15.742Z,99.90
2022-08-01T02:36:30.522Z,99.90
2022-08-01T02:39:16.207Z,99.90
2022-08-01T02:42:08.467Z,99.90
2022-08-01T02:44:56.424Z,99.90
2022-08-01T02:47:44.433Z,99.90
2022-08-01T02:50:34.081Z,99.90
2022-08-01T02:53:23.964Z,99.90
2022-08-01T02:56:36.712Z,99.90
2022-08-01T02:59:26.796Z,99.90
2022-08-01T03:02:15.581Z,99.90
2022-08-01T03:05:03.310Z,99.90
2022-08-01T03:07:50.367Z,99.90
2022-08-01T03:10:39.807Z,99.90
2022-08-01T03:13:29.202Z,99.90
2022-08-01T03:16:16.990Z,99.90
2022-08-01T03:19:04.246Z,99.90
2022-08-01T03:21:51.846Z,99.90
2022-08-01T03:24:40.028Z,99.90
2022-08-01T03:27:27.245Z,99.90
2022-08-01T03:30:16.501Z,99.90
2022-08-01T03:33:04.073Z,99.90
2022-08-01T03:35:54.720Z,99.90
2022-08-01T03:38:44.299Z,99.90
2022-08-01T03:41:38.276Z,99.90
2022-08-01T03:44:28.427Z,99.90
2022-08-01T03:47:18.324Z,99.90
2022-08-01T03:50:12.484Z,99.90
2022-08-01T03:53:02.185Z,99.90
2022-08-01T03:55:49.970Z,99.90
2022-08-01T03:58:37.117Z,99.90
2022-08-01T04:01:24.162Z,99.90
2022-08-01T04:04:13.008Z,99.90
2022-08-01T04:07:05.083Z,99.90
2022-08-01T04:09:51.875Z,99.90
2022-08-01T04:12:38.289Z,99.90
2022-08-01T04:15:24.970Z,99.90
2022-08-01T04:18:11.386Z,99.90
2022-08-01T04:20:59.132Z,99.90
2022-08-01T04:23:51.726Z,99.90
2022-08-01T04:26:42.003Z,99.90
2022-08-01T04:29:30.854Z,99.90
2022-08-01T04:32:20.059Z,99.90
2022-08-01T04:35:57.709Z,99.90
2022-08-01T04:38:24.259Z,99.90
2022-08-01T04:41:14.460Z,99.90
2022-08-01T04:44:01.714Z,99.90
2022-08-01T04:46:49.418Z,99.90
2022-08-01T04:49:49.162Z,99.90
2022-08-01T04:52:36.882Z,99.90
2022-08-01T04:55:25.137Z,99.90
2022-08-01T04:58:16.152Z,99.90
2022-08-01T05:01:04.508Z,99.90
2022-08-01T05:03:51.409Z,99.90
2022-08-01T05:06:37.931Z,99.90
2022-08-01T05:09:27.126Z,99.90
2022-08-01T05:12:19.222Z,99.90
2022-08-01T05:15:11.696Z,99.90
2022-08-01T05:18:01.214Z,99.90
2022-08-01T05:20:48.350Z,99.90
2022-08-01T05:23:43.209Z,99.90
2022-08-01T05:26:30.171Z,99.90
2022-08-01T05:29:19.815Z,99.90
2022-08-01T05:32:07.218Z,99.90
2022-08-01T05:34:54.169Z,99.90
2022-08-01T05:37:40.613Z,99.90
2022-08-01T05:40:27.437Z,99.90
2022-08-01T05:43:13.771Z,99.90
2022-08-01T05:46:02.521Z,99.90
2022-08-01T05:48:49.272Z,99.90
2022-08-01T05:51:35.917Z,99.90
2022-08-01T05:54:22.242Z,99.90
2022-08-01T05:57:08.663Z,99.90
2022-08-01T05:59:55.118Z,99.90
2022-08-01T06:02:46.120Z,99.90
2022-08-01T06:05:32.734Z,99.90
2022-08-01T06:08:19.285Z,99.90
2022-08-01T06:11:05.849Z,99.90
2022-08-01T06:13:52.452Z,99.90
2022-08-01T06:16:39.172Z,99.90
2022-08-01T06:19:27.465Z,99.90
2022-08-01T06:22:14.176Z,99.90
2022-08-01T06:25:00.772Z,99.90
2022-08-01T06:27:47.234Z,99.90
2022-08-01T06:30:33.798Z,99.90
2022-08-01T06:33:20.772Z,99.90
2022-08-01T06:36:08.623Z,99.90
2022-08-01T06:38:55.009Z,99.90
2022-08-01T06:41:42.556Z,99.90
2022-08-01T06:44:29.150Z,99.90
2022-08-01T06:47:15.806Z,99.90
2022-08-01T06:50:02.574Z,99.90
2022-08-01T06:52:50.479Z,99.90
2022-08-01T06:55:36.807Z,99.90
2022-08-01T06:58:30.982Z,99.90
2022-08-01T07:01:18.829Z,99.90
2022-08-01T07:04:05.432Z,99.90
2022-08-01T07:06:51.787Z,99.90
2022-08-01T07:09:41.997Z,99.90
2022-08-01T07:12:28.620Z,99.90
2022-08-01T07:15:15.398Z,99.90
2022-08-01T07:18:04.692Z,99.90
2022-08-01T07:20:52.703Z,99.90
2022-08-01T07:23:39.767Z,99.90
2022-08-01T07:26:34.278Z,99.90
2022-08-01T07:29:21.015Z,99.90
2022-08-01T07:32:08.448Z,99.90
2022-08-01T07:34:55.241Z,99.90
2022-08-01T07:37:47.836Z,99.90
2022-08-01T07:40:36.397Z,99.90
2022-08-01T07:43:24.250Z,99.90
2022-08-01T07:46:10.737Z,99.90
2022-08-01T07:48:57.206Z,99.90
2022-08-01T07:51:43.667Z,99.90
2022-08-01T07:54:52.207Z,99.90
2022-08-01T07:57:39.581Z,99.90
2022-08-01T08:00:28.511Z,99.90
2022-08-01T08:03:14.944Z,99.90
2022-08-01T08:06:01.483Z,99.90
2022-08-01T08:08:47.859Z,99.90
2022-08-01T08:11:34.395Z,99.90
2022-08-01T08:14:23.723Z,99.90
2022-08-01T08:17:20.712Z,99.90
2022-08-01T08:20:09.603Z,99.90
2022-08-01T08:22:56.802Z,99.90
2022-08-01T08:25:43.414Z,99.90
2022-08-01T08:28:29.838Z,99.90
2022-08-01T08:31:50.640Z,99.90
2022-08-01T08:34:25.070Z,99.90
2022-08-01T08:37:12.138Z,99.90
2022-08-01T08:39:58.482Z,99.90
2022-08-01T08:42:47.351Z,99.90
2022-08-01T08:45:59.880Z,99.90
2022-08-01T08:48:42.276Z,99.90
2022-08-01T08:51:33.161Z,99.90
2022-08-01T08:54:21.773Z,99.90
2022-08-01T08:57:08.386Z,99.90
2022-08-01T08:59:56.216Z,99.90
2022-08-01T09:02:45.075Z,99.90
2022-08-01T09:05:39.332Z,99.90
2022-08-01T09:08:27.191Z,99.90
2022-08-01T09:11:22.590Z,99.90
2022-08-01T09:14:11.781Z,99.90
2022-08-01T09:17:03.594Z,99.90
2022-08-01T09:19:54.430Z,99.90
2022-08-01T09:22:43.984Z,99.90
2022-08-01T09:25:56.896Z,99.90
2022-08-01T09:28:48.017Z,99.90
2022-08-01T09:31:47.880Z,99.90
2022-08-01T09:34:35.234Z,99.90
2022-08-01T09:37:37.525Z,99.90
2022-08-01T09:40:27.379Z,99.90
2022-08-01T09:43:15.791Z,99.90
2022-08-01T09:46:06.825Z,99.90
2022-08-01T09:49:01.077Z,99.90
2022-08-01T09:51:59.219Z,99.10
2022-08-01T09:54:56.204Z,97.70
2022-08-01T09:57:56.294Z,97.20
2022-08-01T10:00:45.626Z,96.70
2022-08-01T10:03:32.503Z,96.10
2022-08-01T10:06:24.745Z,95.40
2022-08-01T10:09:11.849Z,94.90
2022-08-01T10:12:01.479Z,95.90
2022-08-01T10:14:51.200Z,96.40
2022-08-01T10:17:50.501Z,94.80
2022-08-01T10:20:38.866Z,93.80
2022-08-01T10:23:39.831Z,91.40
2022-08-01T10:26:28.815Z,89.60
2022-08-01T10:29:45.274Z,90.30
2022-08-01T10:32:28.743Z,89.90
2022-08-01T10:35:45.614Z,88.70
2022-08-01T10:38:26.121Z,86.40
2022-08-01T10:41:16.004Z,85.20
2022-08-01T10:44:03.782Z,86.20
2022-08-01T10:46:54.890Z,85.40
2022-08-01T10:49:47.249Z,84.30
2022-08-01T10:52:39.419Z,82.80
2022-08-01T10:55:27.195Z,81.90
2022-08-01T10:58:15.822Z,83.70
2022-08-01T11:01:25.903Z,88.30
2022-08-01T11:04:17.663Z,89.70
2022-08-01T11:07:07.121Z,90.20
2022-08-01T11:10:14.591Z,90.40
2022-08-01T11:13:04.539Z,88.80
2022-08-01T11:15:51.770Z,88.10
2022-08-01T11:18:38.474Z,85.10
2022-08-01T11:22:07.314Z,81.60
2022-08-01T11:25:02.206Z,79.20
2022-08-01T11:27:50.474Z,79.50
2022-08-01T11:30:38.150Z,75.90
2022-08-01T11:33:51.103Z,71.40
2022-08-01T11:39:45.161Z,73.40
2022-08-01T11:42:31.609Z,72.70
2022-08-01T11:45:20.115Z,71.10
2022-08-01T11:48:20.307Z,69.90
2022-08-01T11:51:25.333Z,69.40
2022-08-01T11:54:12.554Z,68.50
2022-08-01T11:57:00.820Z,66.30
2022-08-01T12:00:02.555Z,66.60
2022-08-01T12:02:59.812Z,64.60
2022-08-01T12:05:47.268Z,66.10
2022-08-01T12:08:37.354Z,67.30
2022-08-01T12:11:24.093Z,64.60
2022-08-01T12:14:23.899Z,59.90
2022-08-01T12:17:10.632Z,58.60
2022-08-01T12:19:58.594Z,56.20
2022-08-01T12:22:45.519Z,56.10
2022-08-01T12:25:32.575Z,55.30
2022-08-01T12:28:19.655Z,52.50
2022-08-01T12:31:06.664Z,51.50
2022-08-01T12:33:53.530Z,50.70
2022-08-01T12:36:41.430Z,52.30
2022-08-01T12:39:40.120Z,52.90
2022-08-01T12:42:27.741Z,53.10
2022-08-01T12:45:16.404Z,54.00
2022-08-01T12:48:03.946Z,56.30
2022-08-01T12:50:51.784Z,57.00
2022-08-01T12:53:41.675Z,56.50
2022-08-01T12:56:34.065Z,54.40
2022-08-01T12:59:26.148Z,54.80
2022-08-01T13:02:13.506Z,55.40
2022-08-01T13:05:00.206Z,55.90
2022-08-01T13:07:50.406Z,55.90
2022-08-01T13:10:38.036Z,57.30
2022-08-01T13:13:28.707Z,58.90
2022-08-01T13:16:31.192Z,58.40
2022-08-01T13:19:44.498Z,58.10
2022-08-01T13:22:35.124Z,59.30
2022-08-01T13:25:23.015Z,60.20
2022-08-01T13:28:18.363Z,60.70
2022-08-01T13:31:06.717Z,59.50
2022-08-01T13:34:00.066Z,57.00
2022-08-01T13:36:49.677Z,55.70
2022-08-01T13:39:43.120Z,55.80
2022-08-01T13:42:30.446Z,54.80
2022-08-01T13:45:18.550Z,55.70
2022-08-01T13:48:13.034Z,56.70
2022-08-01T13:51:21.422Z,58.20
2022-08-01T13:54:09.535Z,59.30
2022-08-01T13:56:56.606Z,60.70
2022-08-01T13:59:43.311Z,60.70
2022-08-01T14:02:36.353Z,58.90
2022-08-01T14:05:25.718Z,59.30
2022-08-01T14:08:12.948Z,59.80
2022-08-01T14:11:01.455Z,60.80
2022-08-01T14:13:47.959Z,60.60
2022-08-01T14:16:35.208Z,60.80
2022-08-01T14:19:38.787Z,61.00
2022-08-01T14:22:26.622Z,61.30
2022-08-01T14:25:13.900Z,61.60
2022-08-01T14:28:20.541Z,62.60
2022-08-01T14:31:08.607Z,61.70
2022-08-01T14:33:55.396Z,62.60
2022-08-01T14:36:43.717Z,62.80
2022-08-01T14:39:30.321Z,64.70
2022-08-01T14:42:17.407Z,64.60
2022-08-01T14:45:03.949Z,65.70
2022-08-01T14:47:50.785Z,65.40
2022-08-01T14:50:37.534Z,65.90
2022-08-01T14:53:25.548Z,66.90
2022-08-01T14:56:12.377Z,65.80
2022-08-01T14:58:59.710Z,65.70
2022-08-01T15:01:46.321Z,65.00
2022-08-01T15:04:33.149Z,66.90
2022-08-01T15:07:20.682Z,68.00
2022-08-01T15:10:10.339Z,68.80
2022-08-01T15:12:57.988Z,69.10
2022-08-01T15:15:44.589Z,69.90
2022-08-01T15:18:31.428Z,70.00
2022-08-01T15:21:40.824Z,70.40
2022-08-01T15:24:27.678Z,70.40
2022-08-01T15:27:15.679Z,71.00
2022-08-01T15:30:02.248Z,71.60
2022-08-01T15:32:48.709Z,71.90
2022-08-01T15:35:37.947Z,73.90
2022-08-01T15:38:24.368Z,84.20
2022-08-01T15:41:10.856Z,93.00
2022-08-01T15:43:59.679Z,99.90
2022-08-01T15:46:46.152Z,99.90
2022-08-01T15:49:33.657Z,99.90
2022-08-01T15:52:21.322Z,99.90
2022-08-01T15:55:10.210Z,99.90
2022-08-01T15:57:56.831Z,99.90
2022-08-01T16:00:44.697Z,99.90
2022-08-01T16:03:31.152Z,99.90
2022-08-01T16:06:17.820Z,99.90
2022-08-01T16:09:05.053Z,99.90
2022-08-01T16:11:52.691Z,99.90
2022-08-01T16:14:39.375Z,99.90
2022-08-01T16:17:27.317Z,99.90
2022-08-01T16:20:13.955Z,99.90
2022-08-01T16:23:00.439Z,99.90
2022-08-01T16:25:47.021Z,99.90
2022-08-01T16:28:33.597Z,99.90
2022-08-01T16:31:23.381Z,99.90
2022-08-01T16:34:28.680Z,99.90
2022-08-01T16:37:15.492Z,99.90
2022-08-01T16:40:01.898Z,99.90
2022-08-01T16:42:49.786Z,99.90
2022-08-01T16:45:40.652Z,99.90
2022-08-01T16:48:29.213Z,99.90
2022-08-01T16:51:17.364Z,99.90
2022-08-01T16:54:04.652Z,99.90
2022-08-01T16:57:11.970Z,99.90
2022-08-01T16:59:58.726Z,99.90
2022-08-01T17:02:45.809Z,99.90
2022-08-01T17:05:33.521Z,99.90
2022-08-01T17:08:21.598Z,99.90
2022-08-01T17:11:08.090Z,99.90
2022-08-01T17:13:54.654Z,99.90
2022-08-01T17:16:41.265Z,99.90
2022-08-01T17:19:33.004Z,99.90
2022-08-01T17:22:20.958Z,99.90
2022-08-01T17:25:15.869Z,99.90
2022-08-01T17:28:03.221Z,99.90
2022-08-01T17:30:50.069Z,99.90
2022-08-01T17:33:45.678Z,99.90
2022-08-01T17:36:33.370Z,99.90
2022-08-01T17:39:23.579Z,99.90
2022-08-01T17:42:25.229Z,99.90
2022-08-01T17:45:28.161Z,99.90
2022-08-01T17:48:17.306Z,99.90
2022-08-01T17:51:04.241Z,99.90
2022-08-01T17:53:56.119Z,99.90
2022-08-01T17:56:46.021Z,99.90
2022-08-01T17:59:34.356Z,99.90
2022-08-01T18:02:21.170Z,99.90
2022-08-01T18:05:10.703Z,99.90
2022-08-01T18:08:01.751Z,99.90
2022-08-01T18:10:49.087Z,99.90
2022-08-01T18:13:35.886Z,99.90
2022-08-01T18:16:24.341Z,99.90
2022-08-01T18:19:10.837Z,99.90
2022-08-01T18:21:57.890Z,99.90
2022-08-01T18:24:44.586Z,99.90
2022-08-01T18:28:22.258Z,99.90
2022-08-01T18:30:37.626Z,99.90
2022-08-01T18:33:25.569Z,99.90
2022-08-01T18:36:27.212Z,99.90
2022-08-01T18:39:19.085Z,99.90
2022-08-01T18:42:07.312Z,99.90
2022-08-01T18:44:54.167Z,99.90
2022-08-01T18:47:40.960Z,99.90
2022-08-01T18:50:28.750Z,99.90
2022-08-01T18:53:15.371Z,99.90
2022-08-01T18:56:04.111Z,99.90
2022-08-01T18:58:54.922Z,99.90
2022-08-01T19:01:41.636Z,99.90
2022-08-01T19:04:28.089Z,99.90
2022-08-01T19:07:39.435Z,99.90
2022-08-01T19:10:25.547Z,99.90
2022-08-01T19:13:12.080Z,99.90
2022-08-01T19:15:58.909Z,99.90
2022-08-01T19:18:46.332Z,99.90
2022-08-01T19:21:33.501Z,99.90
2022-08-01T19:24:23.126Z,99.90
2022-08-01T19:27:14.322Z,99.90
2022-08-01T19:30:03.561Z,99.90
2022-08-01T19:32:50.421Z,99.90
2022-08-01T19:35:38.696Z,99.90
2022-08-01T19:38:27.283Z,99.90
2022-08-01T19:41:16.663Z,99.90
2022-08-01T19:44:03.556Z,99.90
2022-08-01T19:46:51.343Z,99.90
2022-08-01T19:49:38.636Z,99.90
2022-08-01T19:52:27.921Z,99.90
2022-08-01T19:55:16.263Z,99.90
2022-08-01T19:58:25.871Z,99.90
2022-08-01T20:01:14.338Z,99.90
2022-08-01T20:04:04.560Z,99.90
2022-08-01T20:06:51.388Z,99.90
2022-08-01T20:09:40.873Z,99.90
2022-08-01T20:12:29.254Z,99.90
2022-08-01T20:15:17.805Z,99.90
2022-08-01T20:18:04.613Z,99.90
2022-08-01T20:20:52.722Z,99.90
2022-08-01T20:23:41.805Z,99.90
2022-08-01T20:26:30.038Z,99.90
2022-08-01T20:29:19.099Z,99.90
2022-08-01T20:32:08.175Z,99.90
2022-08-01T20:34:55.792Z,99.90
2022-08-01T20:38:04.001Z,99.90
2022-08-01T20:40:52.748Z,99.90
2022-08-01T20:43:39.639Z,99.90
2022-08-01T20:46:27.313Z,99.90
2022-08-01T20:49:16.023Z,99.90
2022-08-01T20:52:12.257Z,99.90
2022-08-01T20:54:59.647Z,99.90
2022-08-01T20:57:53.621Z,99.90
2022-08-01T21:00:41.134Z,99.90
2022-08-01T21:03:37.950Z,99.90
2022-08-01T21:06:34.774Z,99.90
2022-08-01T21:09:24.987Z,99.90
2022-08-01T21:12:21.130Z,99.90
2022-08-01T21:15:12.965Z,99.90
2022-08-01T21:18:05.075Z,99.90
2022-08-01T21:20:59.678Z,99.90
2022-08-01T21:23:53.809Z,99.90
2022-08-01T21:26:41.968Z,99.90
2022-08-01T21:29:29.409Z,99.90
2022-08-01T21:32:17.062Z,99.90
2022-08-01T21:35:05.476Z,99.90
2022-08-01T21:38:03.598Z,99.90
2022-08-01T21:40:53.696Z,99.90
2022-08-01T21:43:43.048Z,99.90
2022-08-01T21:46:33.274Z,99.90
2022-08-01T21:49:19.972Z,99.90
2022-08-01T21:52:09.193Z,99.90
2022-08-01T21:55:02.803Z,99.90
2022-08-01T21:58:02.715Z,99.90
2022-08-01T22:00:54.065Z,99.90
2022-08-01T22:03:47.085Z,99.90
2022-08-01T22:06:37.239Z,99.90
2022-08-01T22:09:24.312Z,99.90
2022-08-01T22:12:17.930Z,99.90
2022-08-01T22:15:08.399Z,99.90
2022-08-01T22:17:55.329Z,99.90
2022-08-01T22:20:42.267Z,99.90
2022-08-01T22:23:29.247Z,99.90
2022-08-01T22:26:15.604Z,99.90
2022-08-01T22:29:03.365Z,99.90
2022-08-01T22:31:56.812Z,99.90
2022-08-01T22:34:45.441Z,99.90
2022-08-01T22:37:56.631Z,99.90
2022-08-01T22:40:45.961Z,99.90
2022-08-01T22:43:40.414Z,99.90
2022-08-01T22:46:34.205Z,99.90
2022-08-01T22:49:29.121Z,99.90
2022-08-01T22:52:20.001Z,99.90
2022-08-01T22:55:08.370Z,99.90
2022-08-01T22:57:59.638Z,99.90
2022-08-01T23:00:51.369Z,99.90
2022-08-01T23:03:42.163Z,99.90
2022-08-01T23:06:38.513Z,99.90
2022-08-01T23:09:52.643Z,99.90
2022-08-01T23:12:35.898Z,99.90
2022-08-01T23:15:23.968Z,99.90
2022-08-01T23:18:11.024Z,99.90
2022-08-01T23:21:00.086Z,99.90
2022-08-01T23:23:49.271Z,99.90
2022-08-01T23:26:37.277Z,99.90
2022-08-01T23:29:27.801Z,99.90
2022-08-01T23:32:14.692Z,99.90
2022-08-01T23:35:01.615Z,99.90
2022-08-01T23:37:48.234Z,99.90
2022-08-01T23:40:36.278Z,99.90
2022-08-01T23:43:23.148Z,99.90
2022-08-01T23:46:12.635Z,99.90
2022-08-01T23:48:59.321Z,99.90
2022-08-01T23:51:46.371Z,99.90
2022-08-01T23:54:33.026Z,99.90
2022-08-01T23:57:21.294Z,99.90
